Time;durP1;ratioP1;P1;durP2;ratioP2;P2;SDS_P1;SDS_P2;PMS_P1;PMS_P2;Temp;Humidity;BMP_temperature;BMP_pressure;BME280_temperature;BME280_humidity;BME280_pressure;Samples;Min_cycle;Max_cycle;Signal;HPM_P1;HPM_P2
2023/05/27 00:00:06;;;;;;;13.07;5.25;;;9.70;99.90;;;;;;5033277;28;20335;-94
2023/05/27 00:02:32;;;;;;;14.80;5.88;;;9.70;99.90;;;;;;5033213;28;20609;-94
2023/05/27 00:04:57;;;;;;;14.07;5.50;;;9.70;99.90;;;;;;5032944;28;20185;-94
2023/05/27 00:07:23;;;;;;;11.00;4.97;;;9.70;99.90;;;;;;5033073;28;20324;-93
2023/05/27 00:09:49;;;;;;;14.20;4.97;;;9.70;99.90;;;;;;5033899;28;20298;-95
2023/05/27 00:12:15;;;;;;;13.77;5.30;;;9.60;99.90;;;;;;5032918;28;20182;-94
2023/05/27 00:14:41;;;;;;;12.43;5.40;;;9.60;99.90;;;;;;5032677;28;20281;-95
2023/05/27 00:17:09;;;;;;;17.40;5.97;;;9.50;99.90;;;;;;5033150;28;20190;-95
2023/05/27 00:19:35;;;;;;;14.00;5.38;;;9.40;99.90;;;;;;5032815;28;20174;-95
2023/05/27 00:22:01;;;;;;;20.70;5.63;;;9.50;99.90;;;;;;5032841;28;20186;-94
2023/05/27 00:24:29;;;;;;;18.25;6.03;;;9.50;99.90;;;;;;5033135;28;20186;-95
2023/05/27 00:26:54;;;;;;;10.63;4.72;;;9.50;99.90;;;;;;5033116;28;20210;-96
2023/05/27 00:29:20;;;;;;;16.55;5.60;;;9.50;99.90;;;;;;5033009;28;20261;-96
2023/05/27 00:31:49;;;;;;;15.15;5.22;;;9.40;99.90;;;;;;5033084;28;20179;-96
2023/05/27 00:34:14;;;;;;;13.30;5.28;;;9.40;99.90;;;;;;5032681;28;20198;-95
2023/05/27 00:36:40;;;;;;;12.38;5.63;;;9.40;99.90;;;;;;5032843;28;20229;-94
2023/05/27 00:39:06;;;;;;;12.77;5.03;;;9.30;99.90;;;;;;5032740;28;20174;-95
2023/05/27 00:41:32;;;;;;;13.50;5.75;;;9.20;99.90;;;;;;5032941;28;20174;-96
2023/05/27 00:43:58;;;;;;;14.43;4.95;;;9.20;99.90;;;;;;5033376;28;20597;-96
2023/05/27 00:46:24;;;;;;;15.88;5.28;;;9.20;99.90;;;;;;5033124;28;20301;-95
2023/05/27 00:48:50;;;;;;;14.65;5.10;;;9.10;99.90;;;;;;5032657;28;20648;-94
2023/05/27 00:51:15;;;;;;;13.38;5.20;;;9.10;99.90;;;;;;5032810;28;20183;-95
2023/05/27 00:53:43;;;;;;;13.02;5.07;;;9.10;99.90;;;;;;5033156;28;20691;-96
2023/05/27 00:56:10;;;;;;;13.18;5.57;;;9.10;99.90;;;;;;5032959;28;20179;-96
2023/05/27 00:58:37;;;;;;;16.70;5.72;;;9.10;99.90;;;;;;5032907;28;20703;-96
2023/05/27 01:01:07;;;;;;;16.70;5.57;;;9.20;99.90;;;;;;5033928;28;20308;-96
2023/05/27 01:03:35;;;;;;;12.82;5.53;;;9.20;99.90;;;;;;5036514;28;20177;-94
2023/05/27 01:06:28;;;;;;;19.70;5.72;;;9.20;99.90;;;;;;5036661;28;20649;-90
2023/05/27 01:09:07;;;;;;;17.45;5.80;;;9.10;99.90;;;;;;5035753;28;20218;-94
2023/05/27 01:11:43;;;;;;;18.85;6.07;;;9.00;99.90;;;;;;5036244;28;20368;-96
2023/05/27 01:14:14;;;;;;;16.95;5.00;;;8.80;99.90;;;;;;5053317;28;20609;-96
2023/05/27 01:16:44;;;;;;;10.43;5.20;;;8.70;99.90;;;;;;5054503;28;20236;-95
2023/05/27 01:19:16;;;;;;;13.45;5.50;;;8.70;99.90;;;;;;5054384;28;20273;-96
2023/05/27 01:21:47;;;;;;;13.65;6.00;;;8.70;99.90;;;;;;5052798;28;20626;-96
2023/05/27 01:24:13;;;;;;;15.13;6.00;;;8.60;99.90;;;;;;5053510;28;20174;-96
2023/05/27 01:26:40;;;;;;;11.18;4.80;;;8.60;99.90;;;;;;5053373;28;20325;-96
2023/05/27 01:29:06;;;;;;;14.13;5.53;;;8.70;99.90;;;;;;5053543;28;20178;-94
2023/05/27 01:31:40;;;;;;;17.08;5.80;;;8.80;99.90;;;;;;5054131;28;20269;-94
2023/05/27 01:34:09;;;;;;;18.52;5.45;;;8.70;99.90;;;;;;5053597;28;20174;-96
2023/05/27 01:36:43;;;;;;;13.23;5.10;;;8.70;99.90;;;;;;5049834;28;20622;-95
2023/05/27 01:39:13;;;;;;;14.35;5.82;;;8.70;99.90;;;;;;5036639;28;20178;-96
2023/05/27 01:41:43;;;;;;;11.30;5.18;;;8.60;99.90;;;;;;5039052;28;20182;-95
2023/05/27 01:44:10;;;;;;;12.25;4.60;;;8.60;99.90;;;;;;5037426;28;20170;-96
2023/05/27 01:46:36;;;;;;;11.25;5.35;;;8.50;99.90;;;;;;5036140;28;20588;-95
2023/05/27 01:49:03;;;;;;;11.90;4.78;;;8.40;99.90;;;;;;5035870;28;20185;-94
2023/05/27 01:51:29;;;;;;;11.25;5.05;;;8.40;99.90;;;;;;5036927;28;20179;-96
2023/05/27 01:53:55;;;;;;;19.00;5.82;;;8.40;99.90;;;;;;5488934;22;20518;-81
2023/05/27 01:56:22;;;;;;;14.82;5.50;;;8.50;99.90;;;;;;5015577;28;20258;-82
2023/05/27 01:58:48;;;;;;;11.35;4.85;;;8.40;99.90;;;;;;5015390;28;20233;-82
2023/05/27 02:01:13;;;;;;;12.75;5.45;;;8.40;99.90;;;;;;5014422;28;20175;-82
2023/05/27 02:03:40;;;;;;;15.57;5.10;;;8.40;99.90;;;;;;5015209;28;20306;-82
2023/05/27 02:06:05;;;;;;;11.95;5.63;;;8.30;99.90;;;;;;5030264;28;20235;-82
2023/05/27 02:08:33;;;;;;;14.80;5.70;;;8.30;99.90;;;;;;5015671;28;20255;-82
2023/05/27 02:10:59;;;;;;;15.65;5.47;;;8.30;99.90;;;;;;5013853;28;20757;-81
2023/05/27 02:13:25;;;;;;;18.25;5.82;;;8.30;99.90;;;;;;5014741;28;20258;-82
2023/05/27 02:15:50;;;;;;;13.88;5.15;;;8.20;99.90;;;;;;5030591;28;20179;-82
2023/05/27 02:18:17;;;;;;;13.68;5.22;;;8.20;99.90;;;;;;5015167;28;20185;-82
2023/05/27 02:20:42;;;;;;;13.95;5.10;;;8.20;99.90;;;;;;5030426;28;20191;-82
2023/05/27 02:23:08;;;;;;;8.90;5.00;;;8.30;99.90;;;;;;5015351;28;20167;-83
2023/05/27 02:25:34;;;;;;;16.67;5.47;;;8.30;99.90;;;;;;5029089;28;20287;-83
2023/05/27 02:28:02;;;;;;;13.80;5.20;;;8.20;99.90;;;;;;5033817;28;20170;-82
2023/05/27 02:30:29;;;;;;;12.75;5.00;;;8.20;99.90;;;;;;5034753;28;20167;-82
2023/05/27 02:32:55;;;;;;;14.52;5.03;;;8.10;99.90;;;;;;5034471;28;20182;-82
2023/05/27 02:35:21;;;;;;;10.90;5.07;;;8.10;99.90;;;;;;5033541;28;20183;-83
2023/05/27 02:37:47;;;;;;;12.97;5.53;;;8.00;99.90;;;;;;5034876;28;20198;-83
2023/05/27 02:40:26;;;;;;;14.87;5.27;;;8.10;99.90;;;;;;5033200;28;20265;-83
2023/05/27 02:42:52;;;;;;;11.80;4.93;;;8.10;99.90;;;;;;5034590;28;20171;-82
2023/05/27 02:45:18;;;;;;;15.35;5.22;;;8.10;99.90;;;;;;5033010;28;20180;-82
2023/05/27 02:47:43;;;;;;;10.13;5.10;;;8.00;99.90;;;;;;5034495;28;20245;-82
2023/05/27 02:50:09;;;;;;;12.38;4.75;;;8.00;99.90;;;;;;5033144;28;20561;-82
2023/05/27 02:52:35;;;;;;;10.50;4.75;;;7.90;99.90;;;;;;5034252;28;20179;-82
2023/05/27 02:55:01;;;;;;;7.88;4.40;;;7.90;99.90;;;;;;5032682;28;20230;-81
2023/05/27 02:57:27;;;;;;;9.85;4.63;;;7.80;99.90;;;;;;5034488;28;20547;-82
2023/05/27 02:59:52;;;;;;;10.50;4.47;;;7.80;99.90;;;;;;5032934;28;20605;-82
2023/05/27 03:02:18;;;;;;;10.00;3.90;;;7.80;99.90;;;;;;5034061;28;20603;-82
2023/05/27 03:04:44;;;;;;;10.20;4.07;;;7.80;99.90;;;;;;5034302;28;20170;-82
2023/05/27 03:07:10;;;;;;;6.75;3.58;;;7.80;99.90;;;;;;5034232;28;20216;-82
2023/05/27 03:09:35;;;;;;;7.40;3.63;;;7.70;99.90;;;;;;5033899;28;20171;-82
2023/05/27 03:12:01;;;;;;;8.38;3.75;;;7.70;99.90;;;;;;5034147;28;20190;-81
2023/05/27 03:14:27;;;;;;;6.60;3.63;;;7.70;99.90;;;;;;5033891;28;20193;-81
2023/05/27 03:16:54;;;;;;;9.70;4.00;;;7.70;99.90;;;;;;5033751;28;20510;-81
2023/05/27 03:19:20;;;;;;;10.57;4.40;;;7.70;99.90;;;;;;5034060;28;20497;-81
2023/05/27 03:21:46;;;;;;;10.07;4.20;;;7.70;99.90;;;;;;5033858;28;20184;-81
2023/05/27 03:24:13;;;;;;;10.27;4.53;;;7.70;99.90;;;;;;5031578;28;20190;-81
2023/05/27 03:26:38;;;;;;;6.23;3.23;;;7.60;99.90;;;;;;5033612;28;20273;-81
2023/05/27 03:29:04;;;;;;;7.72;3.58;;;7.70;99.90;;;;;;5033754;28;20675;-81
2023/05/27 03:31:30;;;;;;;10.23;4.17;;;7.60;99.90;;;;;;5033652;28;20182;-81
2023/05/27 03:33:56;;;;;;;10.57;4.47;;;7.60;99.90;;;;;;5032469;28;20498;-81
2023/05/27 03:36:21;;;;;;;9.67;4.13;;;7.60;99.90;;;;;;5032967;28;20190;-81
2023/05/27 03:38:47;;;;;;;10.40;4.20;;;7.50;99.90;;;;;;5032013;28;20214;-82
2023/05/27 03:41:13;;;;;;;8.47;4.00;;;7.60;99.90;;;;;;5048695;28;20567;-81
2023/05/27 03:43:39;;;;;;;6.80;4.07;;;7.60;99.90;;;;;;5031901;28;20742;-82
2023/05/27 03:46:06;;;;;;;9.73;4.20;;;7.70;99.90;;;;;;5033495;28;20205;-82
2023/05/27 03:48:32;;;;;;;8.17;3.83;;;7.70;99.90;;;;;;5033840;28;20182;-82
2023/05/27 03:50:58;;;;;;;5.97;4.10;;;7.70;99.90;;;;;;5033545;28;20175;-82
2023/05/27 03:53:23;;;;;;;8.97;4.30;;;7.80;99.90;;;;;;5032195;28;20182;-82
2023/05/27 03:55:49;;;;;;;10.27;4.90;;;7.80;99.90;;;;;;5033188;28;20234;-82
2023/05/27 03:58:16;;;;;;;8.03;4.30;;;7.80;99.90;;;;;;5033445;28;20579;-82
2023/05/27 04:00:42;;;;;;;11.57;4.63;;;7.90;99.90;;;;;;5032034;28;20581;-82
2023/05/27 04:03:09;;;;;;;11.35;5.43;;;7.90;99.90;;;;;;5033420;28;20194;-82
2023/05/27 04:05:35;;;;;;;13.97;5.27;;;7.90;99.90;;;;;;5032170;28;20664;-82
2023/05/27 04:08:02;;;;;;;12.50;6.13;;;8.00;99.90;;;;;;5033522;28;20652;-82
2023/05/27 04:10:27;;;;;;;10.50;5.10;;;8.00;99.90;;;;;;5033100;28;20171;-82
2023/05/27 04:12:53;;;;;;;13.98;5.60;;;8.00;99.90;;;;;;5031724;28;20193;-82
2023/05/27 04:15:19;;;;;;;10.97;5.73;;;8.00;99.90;;;;;;5033287;28;20501;-82
2023/05/27 04:17:45;;;;;;;9.23;5.43;;;8.10;99.90;;;;;;5033405;28;20178;-82
2023/05/27 04:20:14;;;;;;;11.47;5.00;;;8.10;99.90;;;;;;5033370;28;20170;-82
2023/05/27 04:22:43;;;;;;;12.13;6.17;;;8.20;99.90;;;;;;5032769;28;20262;-82
2023/05/27 04:25:09;;;;;;;12.73;5.57;;;8.20;99.90;;;;;;5032960;28;20306;-82
2023/05/27 04:27:36;;;;;;;11.25;5.68;;;8.20;99.90;;;;;;5031787;28;20268;-81
2023/05/27 04:30:04;;;;;;;12.33;5.67;;;8.30;99.90;;;;;;5031995;28;20629;-82
2023/05/27 04:32:32;;;;;;;10.47;5.47;;;8.30;99.90;;;;;;5033122;28;20185;-82
2023/05/27 04:34:59;;;;;;;12.32;5.35;;;8.40;99.90;;;;;;5033768;28;20619;-82
2023/05/27 04:37:27;;;;;;;11.95;6.10;;;8.50;99.90;;;;;;5035783;28;20183;-82
2023/05/27 04:39:56;;;;;;;17.98;5.65;;;8.60;99.90;;;;;;5036574;28;20258;-82
2023/05/27 04:42:25;;;;;;;15.73;5.78;;;8.70;99.90;;;;;;5036760;28;20224;-82
2023/05/27 04:44:51;;;;;;;12.05;5.32;;;8.80;99.90;;;;;;5035652;28;20225;-83
2023/05/27 04:47:17;;;;;;;13.67;5.40;;;9.00;99.90;;;;;;5036729;28;20214;-82
2023/05/27 04:49:46;;;;;;;14.65;5.10;;;9.10;99.90;;;;;;5036820;28;20597;-83
2023/05/27 04:52:12;;;;;;;10.93;5.13;;;9.30;99.90;;;;;;5035452;28;20594;-82
2023/05/27 04:54:37;;;;;;;11.98;5.07;;;9.40;99.90;;;;;;5036168;28;20226;-82
2023/05/27 04:57:03;;;;;;;11.05;4.95;;;9.40;99.90;;;;;;5036694;28;20182;-82
2023/05/27 05:02:21;;;;;;;15.10;5.50;;;9.60;99.90;;;;;;5036719;28;20620;-82
2023/05/27 05:04:47;;;;;;;13.90;5.85;;;9.70;99.90;;;;;;5035158;28;20598;-82
2023/05/27 05:07:14;;;;;;;13.60;6.30;;;9.80;99.90;;;;;;5036075;28;20245;-82
2023/05/27 05:09:39;;;;;;;13.75;5.93;;;9.90;99.90;;;;;;5034640;28;20621;-82
2023/05/27 05:12:06;;;;;;;14.65;5.22;;;10.00;99.90;;;;;;5036402;28;20253;-82
2023/05/27 05:14:32;;;;;;;12.77;5.57;;;10.10;99.90;;;;;;5034850;28;20269;-82
2023/05/27 05:16:57;;;;;;;16.95;6.15;;;10.10;99.90;;;;;;5036426;28;20217;-83
2023/05/27 05:19:23;;;;;;;11.00;5.93;;;10.10;99.90;;;;;;5036044;28;20163;-82
2023/05/27 05:21:49;;;;;;;8.85;5.10;;;10.20;99.90;;;;;;5028726;28;20180;-82
2023/05/27 05:24:14;;;;;;;13.35;6.18;;;10.30;99.90;;;;;;5024407;28;20497;-81
2023/05/27 05:26:40;;;;;;;14.25;5.72;;;10.40;99.90;;;;;;5024212;28;20200;-82
2023/05/27 05:29:06;;;;;;;14.07;5.90;;;10.40;99.90;;;;;;5026325;28;20213;-82
2023/05/27 05:31:32;;;;;;;14.98;5.93;;;10.40;99.90;;;;;;5031625;28;20190;-82
2023/05/27 05:33:57;;;;;;;14.82;5.30;;;10.50;99.90;;;;;;5027409;28;20174;-82
2023/05/27 05:36:23;;;;;;;12.15;6.18;;;10.60;99.90;;;;;;5018194;28;20280;-82
2023/05/27 05:38:49;;;;;;;15.70;6.68;;;10.60;99.90;;;;;;5020474;28;20330;-82
2023/05/27 05:41:15;;;;;;;13.55;6.20;;;10.70;99.90;;;;;;5014416;28;20518;-82
2023/05/27 05:43:41;;;;;;;16.65;6.68;;;10.70;99.90;;;;;;5015746;28;20170;-83
2023/05/27 05:46:07;;;;;;;17.25;6.40;;;10.80;99.90;;;;;;5015637;28;20199;-83
2023/05/27 05:48:32;;;;;;;20.52;7.05;;;10.80;99.90;;;;;;5015364;28;20179;-83
2023/05/27 05:51:00;;;;;;;17.40;7.25;;;10.90;99.90;;;;;;5015810;28;20169;-82
2023/05/27 05:53:26;;;;;;;14.10;5.95;;;10.90;99.90;;;;;;5014448;28;20187;-82
2023/05/27 05:55:52;;;;;;;20.52;6.70;;;11.00;99.90;;;;;;5015495;28;20234;-82
2023/05/27 05:58:18;;;;;;;19.95;7.30;;;11.10;99.90;;;;;;5015835;28;20570;-82
2023/05/27 06:00:44;;;;;;;17.73;7.45;;;11.20;99.90;;;;;;5015791;28;20250;-83
2023/05/27 06:03:10;;;;;;;21.38;7.32;;;11.20;99.90;;;;;;5014193;28;20266;-83
2023/05/27 06:05:35;;;;;;;29.25;7.32;;;11.30;99.90;;;;;;5015103;28;20218;-82
2023/05/27 06:08:01;;;;;;;16.33;6.22;;;11.40;99.90;;;;;;5032447;28;20937;-82
2023/05/27 06:10:27;;;;;;;16.38;6.60;;;11.40;99.90;;;;;;5035077;28;20213;-82
2023/05/27 06:12:52;;;;;;;15.98;5.90;;;11.50;99.90;;;;;;5035239;28;20174;-83
2023/05/27 06:15:18;;;;;;;17.02;6.18;;;11.50;99.90;;;;;;5035284;28;20644;-82
2023/05/27 06:17:44;;;;;;;14.20;6.00;;;11.60;99.90;;;;;;5035074;28;20231;-82
2023/05/27 06:20:10;;;;;;;24.20;7.20;;;11.70;99.90;;;;;;5033656;28;20175;-82
2023/05/27 06:22:36;;;;;;;20.33;7.53;;;11.70;99.90;;;;;;5035244;28;20213;-82
2023/05/27 06:25:02;;;;;;;16.48;6.57;;;11.80;99.90;;;;;;5034930;28;20186;-83
2023/05/27 06:27:28;;;;;;;17.95;6.22;;;11.90;99.90;;;;;;5034660;28;20663;-83
2023/05/27 06:29:53;;;;;;;16.73;6.40;;;12.00;99.90;;;;;;5033719;28;20171;-82
2023/05/27 06:32:19;;;;;;;13.88;5.65;;;12.20;99.90;;;;;;5033285;28;20182;-82
2023/05/27 06:34:46;;;;;;;19.67;6.32;;;12.20;99.90;;;;;;5035071;28;20183;-83
2023/05/27 06:37:12;;;;;;;17.85;6.50;;;12.30;99.90;;;;;;5033605;28;20189;-83
2023/05/27 06:39:37;;;;;;;20.33;6.28;;;12.40;99.90;;;;;;5034861;28;20179;-83
2023/05/27 06:42:03;;;;;;;15.10;6.43;;;12.50;99.90;;;;;;5034660;28;20178;-83
2023/05/27 06:44:29;;;;;;;22.67;6.80;;;12.50;99.90;;;;;;5034548;28;20167;-82
2023/05/27 06:46:55;;;;;;;17.52;5.55;;;12.60;99.90;;;;;;5040660;28;20220;-82
2023/05/27 06:49:21;;;;;;;21.17;6.22;;;12.80;99.90;;;;;;5054273;28;20158;-82
2023/05/27 06:51:46;;;;;;;17.70;5.43;;;13.10;99.90;;;;;;5054008;28;20238;-82
2023/05/27 06:54:12;;;;;;;18.23;5.22;;;13.20;99.90;;;;;;5048200;28;20226;-82
2023/05/27 06:56:38;;;;;;;18.05;5.45;;;13.50;99.90;;;;;;5024660;28;20242;-83
2023/05/27 06:59:04;;;;;;;18.15;5.85;;;13.70;99.90;;;;;;5022855;28;20171;-82
2023/05/27 07:01:31;;;;;;;18.90;5.90;;;13.90;99.90;;;;;;5018971;28;20658;-82
2023/05/27 07:03:57;;;;;;;19.90;5.57;;;14.10;99.90;;;;;;5014130;28;20172;-83
2023/05/27 07:06:22;;;;;;;16.83;4.63;;;14.20;99.90;;;;;;5014093;28;20233;-82
2023/05/27 07:08:48;;;;;;;14.25;4.63;;;14.40;99.90;;;;;;5033860;28;20170;-83
2023/05/27 07:11:14;;;;;;;17.65;5.07;;;14.50;99.90;;;;;;5034202;28;20162;-82
2023/05/27 07:13:39;;;;;;;16.30;5.57;;;14.60;99.90;;;;;;5032513;28;20179;-85
2023/05/27 07:16:05;;;;;;;15.52;5.15;;;14.70;99.90;;;;;;5034061;28;20171;-84
2023/05/27 07:18:31;;;;;;;19.08;4.80;;;14.80;99.90;;;;;;5033913;28;20661;-82
2023/05/27 07:20:56;;;;;;;15.88;5.00;;;14.80;99.90;;;;;;5034137;28;20166;-83
2023/05/27 07:23:22;;;;;;;15.27;4.10;;;14.90;99.90;;;;;;5033512;28;20633;-83
2023/05/27 07:25:48;;;;;;;15.60;3.95;;;15.10;99.90;;;;;;5032292;28;20252;-83
2023/05/27 07:28:16;;;;;;;14.93;4.47;;;15.20;99.90;;;;;;5018558;28;20238;-83
2023/05/27 07:30:42;;;;;;;12.18;4.28;;;15.30;99.90;;;;;;5013930;28;20168;-82
2023/05/27 07:33:08;;;;;;;14.77;4.25;;;15.30;99.90;;;;;;5013843;28;20194;-82
2023/05/27 07:35:33;;;;;;;13.95;4.85;;;15.30;99.90;;;;;;5014187;28;20182;-83
2023/05/27 07:38:00;;;;;;;11.65;4.00;;;15.50;99.90;;;;;;5029204;28;20178;-84
2023/05/27 07:40:26;;;;;;;15.15;4.45;;;15.70;99.90;;;;;;5033434;28;20177;-83
2023/05/27 07:42:51;;;;;;;12.95;3.88;;;15.70;99.90;;;;;;5018426;28;20478;-83
2023/05/27 07:45:17;;;;;;;10.80;3.22;;;15.80;99.90;;;;;;5012616;28;20187;-83
2023/05/27 07:47:43;;;;;;;12.52;3.20;;;15.90;99.90;;;;;;5012496;28;20223;-83
2023/05/27 07:50:09;;;;;;;14.75;3.65;;;16.00;99.90;;;;;;5012734;28;20174;-85
2023/05/27 07:52:35;;;;;;;9.57;3.35;;;16.10;99.90;;;;;;5013391;28;20197;-83
2023/05/27 07:55:01;;;;;;;10.35;3.42;;;16.20;99.90;;;;;;5013822;28;20234;-86
2023/05/27 07:57:26;;;;;;;7.47;2.63;;;16.20;99.90;;;;;;5014053;28;20235;-89
2023/05/27 07:59:52;;;;;;;12.15;2.88;;;16.30;99.90;;;;;;5014758;28;20668;-82
2023/05/27 08:02:18;;;;;;;8.65;2.78;;;16.30;99.50;;;;;;5045783;28;20523;-83
2023/05/27 08:04:44;;;;;;;7.10;2.70;;;16.30;99.40;;;;;;5051568;28;20174;-83
2023/05/27 08:07:10;;;;;;;13.77;3.30;;;16.40;99.90;;;;;;5039706;28;20661;-84
2023/05/27 08:09:36;;;;;;;10.13;3.08;;;16.50;99.30;;;;;;5033581;28;20182;-83
2023/05/27 08:12:01;;;;;;;11.52;3.35;;;16.40;98.60;;;;;;5037557;28;20170;-83
2023/05/27 08:14:27;;;;;;;13.30;3.05;;;16.50;99.30;;;;;;5037150;28;20228;-84
2023/05/27 08:16:54;;;;;;;13.73;3.13;;;16.60;99.90;;;;;;5037238;28;20178;-82
2023/05/27 08:19:20;;;;;;;13.52;3.40;;;16.70;99.40;;;;;;5036541;28;20265;-82
2023/05/27 08:21:46;;;;;;;11.45;2.80;;;16.80;99.00;;;;;;5037332;28;20243;-82
2023/05/27 08:24:12;;;;;;;11.25;3.22;;;16.90;98.40;;;;;;5035690;28;20273;-82
2023/05/27 08:26:38;;;;;;;11.00;3.38;;;16.90;99.00;;;;;;5037246;28;20238;-83
2023/05/27 08:29:05;;;;;;;14.35;3.40;;;16.90;97.70;;;;;;5036950;28;20574;-82
2023/05/27 08:31:31;;;;;;;12.55;3.40;;;16.80;99.70;;;;;;5035860;28;20257;-83
2023/05/27 08:33:57;;;;;;;11.07;3.08;;;16.90;99.90;;;;;;5037539;28;20189;-83
2023/05/27 08:36:22;;;;;;;6.75;2.70;;;16.80;97.90;;;;;;5037159;28;20186;-82
2023/05/27 08:38:48;;;;;;;10.05;2.65;;;16.90;99.30;;;;;;5037135;28;20175;-83
2023/05/27 08:41:15;;;;;;;10.38;2.92;;;17.10;99.80;;;;;;5038209;28;20621;-85
2023/05/27 08:43:42;;;;;;;11.85;2.88;;;17.20;98.10;;;;;;5037464;28;20179;-85
2023/05/27 08:46:08;;;;;;;9.45;3.00;;;17.30;98.20;;;;;;5036761;28;20186;-82
2023/05/27 08:48:34;;;;;;;13.85;3.30;;;17.40;98.60;;;;;;5037073;28;20171;-82
2023/05/27 08:51:01;;;;;;;10.85;3.45;;;17.50;97.80;;;;;;5036672;28;20309;-83
2023/05/27 08:53:28;;;;;;;9.77;2.97;;;17.60;97.80;;;;;;5036181;28;20178;-82
2023/05/27 08:55:56;;;;;;;9.07;2.72;;;17.70;98.20;;;;;;5035260;28;20226;-83
2023/05/27 08:58:22;;;;;;;10.40;2.95;;;17.80;98.20;;;;;;5036515;28;20206;-83
2023/05/27 09:00:48;;;;;;;8.50;2.65;;;17.80;97.30;;;;;;5035299;28;20175;-82
2023/05/27 09:03:14;;;;;;;8.93;3.13;;;17.70;97.60;;;;;;5036517;28;20182;-86
2023/05/27 09:05:40;;;;;;;8.75;2.45;;;17.80;96.80;;;;;;5034864;28;20601;-84
2023/05/27 09:08:07;;;;;;;8.65;2.95;;;17.90;97.30;;;;;;5018606;28;20210;-82
2023/05/27 09:10:40;;;;;;;9.18;2.92;;;17.80;95.90;;;;;;5015325;28;20595;-83
2023/05/27 09:13:06;;;;;;;10.60;2.65;;;18.00;96.90;;;;;;5014988;28;20179;-83
2023/05/27 09:15:32;;;;;;;9.25;3.28;;;17.90;95.80;;;;;;5015353;28;20190;-83
2023/05/27 09:17:58;;;;;;;14.20;3.00;;;18.00;97.20;;;;;;5016515;28;20206;-82
2023/05/27 09:20:25;;;;;;;10.32;3.08;;;18.00;96.20;;;;;;5015077;28;20179;-83
2023/05/27 09:22:57;;;;;;;10.20;2.95;;;18.10;97.00;;;;;;5030004;28;20186;-83
2023/05/27 09:25:27;;;;;;;11.32;3.10;;;18.20;97.20;;;;;;5016140;28;20178;-82
2023/05/27 09:27:54;;;;;;;9.90;2.78;;;18.30;96.00;;;;;;5014987;28;20211;-82
2023/05/27 09:30:21;;;;;;;12.35;3.13;;;18.50;97.10;;;;;;5016254;28;20176;-82
2023/05/27 09:32:47;;;;;;;9.65;2.75;;;18.40;95.10;;;;;;5014492;28;20251;-83
2023/05/27 09:35:14;;;;;;;9.95;2.53;;;18.50;94.20;;;;;;5016188;28;20555;-83
2023/05/27 09:37:41;;;;;;;7.72;2.72;;;18.40;94.40;;;;;;5028552;28;20183;-84
2023/05/27 09:40:09;;;;;;;10.35;3.03;;;18.20;94.70;;;;;;5035656;28;20225;-84
2023/05/27 09:42:49;;;;;;;10.32;2.70;;;18.10;95.20;;;;;;5035810;28;20170;-86
2023/05/27 09:45:21;;;;;;;9.40;2.65;;;18.10;95.90;;;;;;5036179;28;20244;-83
2023/05/27 09:47:51;;;;;;;9.80;2.42;;;18.30;95.80;;;;;;5035748;28;20212;-85
2023/05/27 09:50:18;;;;;;;8.45;2.67;;;18.40;94.20;;;;;;5035461;28;20633;-84
2023/05/27 09:52:45;;;;;;;9.18;3.15;;;18.30;94.40;;;;;;5035208;28;20491;-83
2023/05/27 09:55:15;;;;;;;10.73;2.60;;;18.30;95.70;;;;;;5035401;28;20219;-84
2023/05/27 09:57:41;;;;;;;11.10;3.00;;;18.30;93.70;;;;;;5035695;28;20487;-86
2023/05/27 10:00:11;;;;;;;10.75;3.25;;;18.40;95.00;;;;;;5035618;28;20175;-85
2023/05/27 10:02:40;;;;;;;11.07;2.85;;;18.60;96.10;;;;;;5035417;28;20602;-84
2023/05/27 10:05:08;;;;;;;6.50;2.75;;;18.70;93.60;;;;;;5035124;28;20261;-84
2023/05/27 10:07:38;;;;;;;12.82;3.35;;;18.70;93.60;;;;;;5033683;28;20310;-86
2023/05/27 10:10:12;;;;;;;9.52;2.78;;;18.70;94.00;;;;;;5035327;28;20174;-84
2023/05/27 10:12:42;;;;;;;7.45;2.70;;;18.50;93.30;;;;;;5035208;28;20167;-85
2023/05/27 10:15:09;;;;;;;10.30;2.72;;;18.60;93.90;;;;;;5035162;28;20166;-85
2023/05/27 10:17:55;;;;;;;8.65;2.40;;;18.60;94.80;;;;;;5033770;28;20241;-84
2023/05/27 10:20:41;;;;;;;11.40;2.45;;;18.80;94.10;;;;;;5035491;28;20171;-85
2023/05/27 10:23:13;;;;;;;11.38;2.97;;;19.00;94.30;;;;;;5033586;28;20174;-84
2023/05/27 10:25:51;;;;;;;10.13;2.85;;;19.10;92.00;;;;;;5034929;28;20250;-83
2023/05/27 10:28:27;;;;;;;12.65;2.95;;;19.10;93.00;;;;;;5033896;28;20202;-84
2023/05/27 10:31:02;;;;;;;11.52;2.85;;;19.10;93.50;;;;;;5035079;28;20175;-84
2023/05/27 10:33:34;;;;;;;11.65;2.90;;;19.00;91.80;;;;;;5034654;28;20171;-84
2023/05/27 10:36:14;;;;;;;5.57;2.45;;;19.30;92.20;;;;;;5034752;28;20225;-84
2023/05/27 10:38:42;;;;;;;12.05;2.67;;;19.50;92.20;;;;;;5034464;28;20174;-84
2023/05/27 10:41:08;;;;;;;7.93;2.45;;;19.70;91.70;;;;;;5034794;28;20163;-85
2023/05/27 10:43:35;;;;;;;9.45;2.55;;;19.90;92.30;;;;;;5034628;28;20635;-84
2023/05/27 10:46:09;;;;;;;8.40;2.72;;;19.90;91.70;;;;;;5035004;28;20206;-89
2023/05/27 10:48:37;;;;;;;8.85;2.40;;;19.90;91.00;;;;;;5034460;28;20157;-85
2023/05/27 10:51:03;;;;;;;8.52;2.40;;;19.80;92.50;;;;;;5034513;28;20593;-86
2023/05/27 10:53:29;;;;;;;6.72;2.25;;;19.70;90.20;;;;;;5034049;28;20175;-86
2023/05/27 10:55:59;;;;;;;6.68;2.10;;;19.90;91.20;;;;;;5033217;28;20309;-86
2023/05/27 10:58:25;;;;;;;12.90;2.90;;;20.10;92.30;;;;;;5034642;28;20174;-86
2023/05/27 11:00:54;;;;;;;8.30;2.63;;;20.20;91.20;;;;;;5034366;28;20172;-89
2023/05/27 11:03:25;;;;;;;7.18;2.25;;;20.30;91.60;;;;;;5034150;28;20242;-84
2023/05/27 11:06:06;;;;;;;6.63;2.13;;;20.20;90.00;;;;;;5033894;28;20178;-89
2023/05/27 11:08:33;;;;;;;8.85;2.58;;;20.30;91.10;;;;;;5034163;28;20254;-84
2023/05/27 11:11:07;;;;;;;8.95;2.55;;;20.30;90.60;;;;;;5032969;28;20613;-85
2023/05/27 11:13:40;;;;;;;8.82;2.67;;;20.20;91.50;;;;;;5032766;28;20240;-85
2023/05/27 11:16:07;;;;;;;5.70;2.30;;;20.20;91.00;;;;;;5033989;28;20175;-84
2023/05/27 11:18:44;;;;;;;7.20;2.75;;;20.00;89.60;;;;;;5034185;28;20197;-84
2023/05/27 11:21:11;;;;;;;7.30;2.45;;;19.90;90.50;;;;;;5034044;28;20245;-85
2023/05/27 11:23:40;;;;;;;6.82;2.63;;;19.80;88.10;;;;;;5031589;28;20210;-84
2023/05/27 11:26:21;;;;;;;7.40;2.63;;;20.00;88.70;;;;;;5022827;28;20242;-86
2023/05/27 11:28:47;;;;;;;8.23;2.22;;;20.00;88.60;;;;;;5036127;28;20332;-87
2023/05/27 11:31:14;;;;;;;7.55;2.33;;;20.00;88.50;;;;;;5032636;28;20202;-84
2023/05/27 11:33:44;;;;;;;6.45;2.40;;;20.10;90.50;;;;;;5033653;28;20189;-87
2023/05/27 11:36:15;;;;;;;8.50;2.58;;;20.30;90.10;;;;;;5033833;28;20167;-84
2023/05/27 11:38:52;;;;;;;7.47;2.53;;;20.50;89.50;;;;;;5033415;28;20531;-85
2023/05/27 11:41:19;;;;;;;7.50;2.25;;;20.60;90.70;;;;;;5033507;28;20198;-84
2023/05/27 11:43:50;;;;;;;7.55;2.55;;;20.50;87.20;;;;;;5033680;28;20178;-84
2023/05/27 11:46:16;;;;;;;6.60;2.80;;;20.60;90.30;;;;;;5033170;28;20198;-85
2023/05/27 11:48:43;;;;;;;5.85;2.10;;;20.80;90.20;;;;;;5033774;28;20709;-85
2023/05/27 11:51:09;;;;;;;6.30;2.50;;;20.80;88.90;;;;;;5033430;28;20538;-84
2023/05/27 11:53:44;;;;;;;4.70;2.15;;;21.00;89.90;;;;;;5032972;28;20187;-88
2023/05/27 11:56:10;;;;;;;6.60;2.53;;;20.80;85.10;;;;;;5032503;28;20174;-86
2023/05/27 11:58:36;;;;;;;7.60;2.50;;;20.70;88.40;;;;;;5033702;28;20201;-84
2023/05/27 12:01:03;;;;;;;8.57;2.83;;;20.70;87.20;;;;;;5033687;28;20174;-85
2023/05/27 12:03:30;;;;;;;7.40;2.72;;;20.70;88.50;;;;;;5033404;28;20253;-83
2023/05/27 12:05:55;;;;;;;6.45;2.40;;;20.90;89.90;;;;;;5032299;28;20202;-87
2023/05/27 12:08:21;;;;;;;6.07;2.65;;;21.20;88.90;;;;;;5032099;28;20190;-85
2023/05/27 12:10:50;;;;;;;8.77;3.10;;;21.20;88.90;;;;;;5033353;28;20548;-84
2023/05/27 12:13:16;;;;;;;8.50;2.80;;;21.30;84.20;;;;;;5033392;28;20169;-84
2023/05/27 12:15:41;;;;;;;8.82;2.90;;;21.30;86.70;;;;;;5033508;28;20253;-90
2023/05/27 12:18:07;;;;;;;5.68;2.50;;;21.30;86.10;;;;;;5033515;28;20182;-84
2023/05/27 12:20:33;;;;;;;8.15;2.40;;;21.30;87.60;;;;;;5033202;28;20216;-84
2023/05/27 12:22:59;;;;;;;9.38;2.90;;;21.40;85.50;;;;;;5031898;28;20559;-85
2023/05/27 12:25:25;;;;;;;8.85;2.75;;;21.40;88.00;;;;;;5032039;28;20175;-85
2023/05/27 12:27:51;;;;;;;7.95;2.83;;;21.50;84.70;;;;;;5032058;28;20210;-85
2023/05/27 12:30:17;;;;;;;6.40;2.40;;;21.50;83.60;;;;;;5033356;28;20186;-85
2023/05/27 12:32:42;;;;;;;7.15;2.67;;;21.40;90.00;;;;;;5033035;28;20193;-84
2023/05/27 12:35:08;;;;;;;6.63;2.60;;;21.50;87.80;;;;;;5047190;28;20182;-84
2023/05/27 12:37:34;;;;;;;9.75;2.80;;;21.70;86.80;;;;;;5056267;28;20186;-84
2023/05/27 12:40:00;;;;;;;5.97;2.95;;;21.80;87.30;;;;;;5032962;28;20320;-84
2023/05/27 12:42:27;;;;;;;8.85;2.72;;;21.50;83.80;;;;;;5033179;28;20166;-86
2023/05/27 12:44:53;;;;;;;11.00;2.95;;;21.60;88.40;;;;;;5033092;28;20209;-84